createdAt,value
2022-09-23T00:02:24.000Z,13.68
2022-09-23T00:07:25.000Z,12.83
2022-09-23T00:12:24.000Z,13.81
2022-09-23T00:17:25.000Z,13.49
2022-09-23T00:22:24.000Z,13.29
2022-09-23T00:27:25.000Z,13.2
2022-09-23T00:32:24.000Z,13.35
2022-09-23T00:37:25.000Z,13.28
2022-09-23T00:42:24.000Z,12.89
2022-09-23T00:47:24.000Z,12.43
2022-09-23T00:52:24.000Z,12.99
2022-09-23T00:57:24.000Z,12.78
2022-09-23T01:02:24.000Z,12.68
2022-09-23T01:07:24.000Z,12.89
2022-09-23T01:12:24.000Z,12.65
2022-09-23T01:17:25.000Z,13.07
2022-09-23T01:22:24.000Z,13.06
2022-09-23T01:27:24.000Z,13.25
2022-09-23T01:32:25.000Z,13.89
2022-09-23T01:37:25.000Z,13.39
2022-09-23T01:42:25.000Z,13.57
2022-09-23T01:47:24.000Z,19.13
2022-09-23T01:52:24.000Z,22.35
2022-09-23T01:57:24.000Z,18.01
2022-09-23T02:02:24.000Z,17.63
2022-09-23T02:07:24.000Z,14.19
2022-09-23T02:12:24.000Z,13.17
2022-09-23T02:17:24.000Z,11.76
2022-09-23T02:22:24.000Z,11.37
2022-09-23T02:27:25.000Z,11.24
2022-09-23T02:37:24.000Z,11.36
2022-09-23T02:42:24.000Z,11.05
2022-09-23T02:47:25.000Z,11.13
2022-09-23T02:52:25.000Z,10.98
2022-09-23T02:57:25.000Z,10.88
2022-09-23T03:02:25.000Z,10.78
2022-09-23T03:07:24.000Z,10.62
2022-09-23T03:12:24.000Z,10.65
2022-09-23T03:17:25.000Z,10.72
2022-09-23T03:22:24.000Z,10.61
2022-09-23T03:27:24.000Z,10.49
2022-09-23T03:32:24.000Z,10.72
2022-09-23T03:37:24.000Z,11.29
2022-09-23T03:42:24.000Z,11.27
2022-09-23T03:47:24.000Z,11.37
2022-09-23T03:52:24.000Z,11.56
2022-09-23T03:57:25.000Z,11.29
2022-09-23T04:07:24.000Z,11.05
2022-09-23T04:12:25.000Z,11.96
2022-09-23T04:17:24.000Z,11.63
2022-09-23T04:22:25.000Z,14.45
2022-09-23T04:27:24.000Z,11.5
2022-09-23T04:32:24.000Z,11.35
2022-09-23T04:37:25.000Z,11.04
2022-09-23T04:42:25.000Z,10.83
2022-09-23T04:47:24.000Z,11.02
2022-09-23T04:52:24.000Z,11.93
2022-09-23T04:57:25.000Z,11.37
2022-09-23T05:02:24.000Z,11.65
2022-09-23T05:07:24.000Z,11.71
2022-09-23T05:12:25.000Z,13.12
2022-09-23T05:17:25.000Z,10.93
2022-09-23T05:22:25.000Z,10.6
2022-09-23T05:27:24.000Z,10.95
2022-09-23T05:32:24.000Z,10.23
2022-09-23T05:37:25.000Z,10.35
2022-09-23T05:42:24.000Z,10.95
2022-09-23T05:47:24.000Z,10.01
2022-09-23T05:52:24.000Z,9.62
2022-09-23T05:57:24.000Z,9
2022-09-23T06:02:24.000Z,8.99
2022-09-23T06:07:24.000Z,9.81
2022-09-23T06:12:25.000Z,9.83
2022-09-23T06:17:24.000Z,9.67
2022-09-23T06:22:24.000Z,10.64
2022-09-23T06:27:25.000Z,9.77
2022-09-23T06:32:24.000Z,9.98
2022-09-23T06:37:25.000Z,9.33
2022-09-23T06:42:25.000Z,9.05
2022-09-23T06:52:24.000Z,9
2022-09-23T06:57:24.000Z,9.84
2022-09-23T07:02:24.000Z,10.46
2022-09-23T07:07:24.000Z,8.83
2022-09-23T07:12:24.000Z,9.3
2022-09-23T07:17:24.000Z,9.33
2022-09-23T07:22:24.000Z,8.86
2022-09-23T07:27:24.000Z,8.64
2022-09-23T07:32:25.000Z,8.64
2022-09-23T07:42:24.000Z,8.05
2022-09-23T07:47:25.000Z,9.03
2022-09-23T07:52:24.000Z,9.87
2022-09-23T07:57:25.000Z,10.26
2022-09-23T08:02:25.000Z,10.22
2022-09-23T08:07:25.000Z,9.41
2022-09-23T08:12:24.000Z,9.23
2022-09-23T08:17:25.000Z,9.73
2022-09-23T08:22:24.000Z,9.72
2022-09-23T08:27:24.000Z,10.72
2022-09-23T08:32:24.000Z,8.36
2022-09-23T08:37:24.000Z,8.34
2022-09-23T08:42:24.000Z,8.59
2022-09-23T08:47:25.000Z,8.91
2022-09-23T08:52:24.000Z,8.2
2022-09-23T08:57:24.000Z,8.26
2022-09-23T09:02:24.000Z,7.56
2022-09-23T09:07:25.000Z,7.5
2022-09-23T09:12:24.000Z,8.13
2022-09-23T09:17:24.000Z,7.7
2022-09-23T09:22:25.000Z,7.84
2022-09-23T09:27:24.000Z,7.2
2022-09-23T09:32:24.000Z,8.14
2022-09-23T09:37:24.000Z,8.96
2022-09-23T09:42:24.000Z,9.66
2022-09-23T09:47:25.000Z,9.74
2022-09-23T09:52:24.000Z,9.97
2022-09-23T09:57:24.000Z,10.8
2022-09-23T10:02:24.000Z,10.67
2022-09-23T10:07:24.000Z,11.06
2022-09-23T10:12:24.000Z,11.88
2022-09-23T10:17:24.000Z,13.26
2022-09-23T10:22:24.000Z,13.95
2022-09-23T10:27:25.000Z,15.07
2022-09-23T10:32:24.000Z,14.76
2022-09-23T10:37:25.000Z,12.94
2022-09-23T10:42:25.000Z,11.38
2022-09-23T10:47:24.000Z,11.47
2022-09-23T10:52:25.000Z,10.76
2022-09-23T10:57:24.000Z,10.19
2022-09-23T11:02:24.000Z,10.04
2022-09-23T11:07:24.000Z,9.58
2022-09-23T11:12:25.000Z,8.66
2022-09-23T11:17:24.000Z,8.93
2022-09-23T11:22:24.000Z,8.72
2022-09-23T11:27:24.000Z,9.56
2022-09-23T11:32:24.000Z,9.45
2022-09-23T11:37:24.000Z,10.67
2022-09-23T11:42:24.000Z,9.85
2022-09-23T11:47:25.000Z,9.99
2022-09-23T11:52:24.000Z,10.77
2022-09-23T11:57:24.000Z,11.93
2022-09-23T12:02:25.000Z,9.37
2022-09-23T12:07:24.000Z,8.71
2022-09-23T12:12:24.000Z,9.12
2022-09-23T12:17:25.000Z,9.09
2022-09-23T12:22:24.000Z,8.9
2022-09-23T12:27:24.000Z,8.7
2022-09-23T12:32:24.000Z,8.79
2022-09-23T12:42:24.000Z,9.23
2022-09-23T12:47:25.000Z,9.58
2022-09-23T12:52:24.000Z,9.39
2022-09-23T12:57:24.000Z,8.81
2022-09-23T13:02:25.000Z,9.42
2022-09-23T13:07:24.000Z,9.43
2022-09-23T13:12:24.000Z,9.23
2022-09-23T13:17:24.000Z,8.56
2022-09-23T13:22:24.000Z,12.28
2022-09-23T13:27:24.000Z,8.73
2022-09-23T13:32:24.000Z,8.42
2022-09-23T13:37:24.000Z,8.52
2022-09-23T13:42:24.000Z,10.09
2022-09-23T13:47:24.000Z,9.9
2022-09-23T13:52:24.000Z,9.74
2022-09-23T13:57:24.000Z,9.44
2022-09-23T14:02:24.000Z,8.69
2022-09-23T14:07:24.000Z,9.46
2022-09-23T14:12:25.000Z,10.08
2022-09-23T14:17:24.000Z,11.29
2022-09-23T14:22:24.000Z,10.26
2022-09-23T14:27:24.000Z,9.27
2022-09-23T14:32:24.000Z,9.58
2022-09-23T14:37:24.000Z,10.29
2022-09-23T14:42:24.000Z,11.04
2022-09-23T14:52:24.000Z,11.8
2022-09-23T14:57:24.000Z,12.45
2022-09-23T15:02:24.000Z,11.98
2022-09-23T15:07:25.000Z,12.61
2022-09-23T15:12:24.000Z,12.37
2022-09-23T15:17:24.000Z,13.39
2022-09-23T15:22:25.000Z,13.62
2022-09-23T15:27:24.000Z,11.58
2022-09-23T15:32:24.000Z,11.01
2022-09-23T15:37:25.000Z,10.51
2022-09-23T15:42:24.000Z,10.07
2022-09-23T15:47:25.000Z,10.03
2022-09-23T15:52:25.000Z,10.79
2022-09-23T15:57:25.000Z,11.33
2022-09-23T16:02:24.000Z,10.42
2022-09-23T16:07:24.000Z,10.55
2022-09-23T16:12:24.000Z,11.99
2022-09-23T16:17:25.000Z,9.59
2022-09-23T16:22:24.000Z,9.73
2022-09-23T16:27:24.000Z,9.53
2022-09-23T16:32:25.000Z,9.45
2022-09-23T16:37:24.000Z,9.42
2022-09-23T16:42:25.000Z,9.63
2022-09-23T16:47:24.000Z,9.89
2022-09-23T16:52:25.000Z,11.43
2022-09-23T16:57:24.000Z,10.71
2022-09-23T17:02:24.000Z,10.23
2022-09-23T17:07:25.000Z,9.45
2022-09-23T17:12:24.000Z,10.87
2022-09-23T17:17:24.000Z,10.61
2022-09-23T17:27:24.000Z,9.72
2022-09-23T17:32:24.000Z,10.13
2022-09-23T17:37:24.000Z,10.63
2022-09-23T17:42:25.000Z,11.56
2022-09-23T17:47:24.000Z,10.16
2022-09-23T17:52:24.000Z,10.85
2022-09-23T17:57:25.000Z,10.36
2022-09-23T18:02:25.000Z,10.44
2022-09-23T18:07:25.000Z,10.86
2022-09-23T18:12:24.000Z,11.11
2022-09-23T18:22:24.000Z,9.56
2022-09-23T18:27:25.000Z,8.82
2022-09-23T18:32:24.000Z,9.09
2022-09-23T18:37:25.000Z,9.2
2022-09-23T18:42:25.000Z,9.34
2022-09-23T18:47:24.000Z,9.22
2022-09-23T18:52:24.000Z,10.75
2022-09-23T18:57:24.000Z,9.89
2022-09-23T19:02:24.000Z,9.36
2022-09-23T19:07:24.000Z,12.06
2022-09-23T19:17:24.000Z,9.44
2022-09-23T19:22:25.000Z,9.36
2022-09-23T19:27:24.000Z,9.42
2022-09-23T19:32:25.000Z,9.29
2022-09-23T19:37:25.000Z,9.65
2022-09-23T19:42:24.000Z,9.45
2022-09-23T19:47:25.000Z,10.34
2022-09-23T19:52:25.000Z,9.89
2022-09-23T19:57:24.000Z,10.1
2022-09-23T20:02:24.000Z,10.25
2022-09-23T20:07:25.000Z,9.91
2022-09-23T20:12:24.000Z,9.2
2022-09-23T20:17:25.000Z,9.16
2022-09-23T20:22:24.000Z,9.56
2022-09-23T20:27:24.000Z,10.82
2022-09-23T20:32:24.000Z,10.59
2022-09-23T20:37:25.000Z,10.44
2022-09-23T20:42:24.000Z,9.75
2022-09-23T20:47:25.000Z,10.36
2022-09-23T20:52:24.000Z,9.54
2022-09-23T20:57:24.000Z,10
2022-09-23T21:02:24.000Z,10.55
2022-09-23T21:07:24.000Z,10.24
2022-09-23T21:12:24.000Z,10.8
2022-09-23T21:17:25.000Z,10.7
2022-09-23T21:22:24.000Z,10.7
2022-09-23T21:27:24.000Z,11.16
2022-09-23T21:32:25.000Z,13.33
2022-09-23T21:37:24.000Z,11.07
2022-09-23T21:42:24.000Z,11.4
2022-09-23T21:47:24.000Z,11.07
2022-09-23T21:52:24.000Z,11.09
2022-09-23T21:57:24.000Z,11.13
2022-09-23T22:02:25.000Z,11.25
2022-09-23T22:07:24.000Z,11.53
2022-09-23T22:12:24.000Z,11.78
2022-09-23T22:17:25.000Z,12.26
2022-09-23T22:22:24.000Z,11.85
2022-09-23T22:27:24.000Z,11.72
2022-09-23T22:32:24.000Z,11.44
2022-09-23T22:37:25.000Z,10.93
2022-09-23T22:42:24.000Z,11.07
2022-09-23T22:47:24.000Z,11.12
2022-09-23T22:52:24.000Z,10.76
2022-09-23T22:57:25.000Z,10.88
2022-09-23T23:02:24.000Z,10.67
2022-09-23T23:07:25.000Z,10.84
2022-09-23T23:12:25.000Z,10.36
2022-09-23T23:17:25.000Z,9.97
2022-09-23T23:22:24.000Z,10.1
2022-09-23T23:27:24.000Z,9.53
2022-09-23T23:32:24.000Z,9.41
2022-09-23T23:37:24.000Z,9.53
2022-09-23T23:42:24.000Z,9.13
2022-09-23T23:47:25.000Z,9.33
2022-09-23T23:52:24.000Z,9.57
2022-09-23T23:57:25.000Z,9.69
